createdAt,value
2023-04-02T00:01:22.673Z,5.00
2023-04-02T00:03:53.795Z,5.00
2023-04-02T00:06:30.212Z,5.02
2023-04-02T00:08:59.442Z,5.02
2023-04-02T00:11:31.795Z,5.01
2023-04-02T00:14:00.961Z,5.03
2023-04-02T00:16:28.948Z,5.02
2023-04-02T00:18:59.872Z,4.97
2023-04-02T00:21:29.903Z,4.98
2023-04-02T00:23:59.156Z,4.98
2023-04-02T00:26:43.054Z,5.01
2023-04-02T00:29:12.623Z,5.02
2023-04-02T00:31:42.393Z,5.02
2023-04-02T00:34:15.929Z,5.03
2023-04-02T00:36:43.950Z,5.02
2023-04-02T00:39:18.727Z,5.01
2023-04-02T00:41:46.776Z,5.00
2023-04-02T00:44:16.175Z,4.96
2023-04-02T00:46:49.491Z,4.97
2023-04-02T00:49:39.491Z,4.98
2023-04-02T00:52:15.683Z,4.97
2023-04-02T00:54:50.857Z,4.97
2023-04-02T00:57:25.380Z,4.96
2023-04-02T00:59:59.748Z,4.95
2023-04-02T01:02:28.031Z,4.90
2023-04-02T01:04:57.176Z,4.91
2023-04-02T01:07:47.178Z,4.91
2023-04-02T01:10:27.758Z,4.90
2023-04-02T01:13:10.393Z,4.90
2023-04-02T01:15:43.985Z,4.88
2023-04-02T01:18:26.576Z,4.90
2023-04-02T01:21:26.090Z,4.88
2023-04-02T01:24:07.369Z,4.90
2023-04-02T01:26:45.690Z,4.88
2023-04-02T01:29:32.891Z,4.86
2023-04-02T01:32:06.544Z,4.84
2023-04-02T01:34:34.914Z,4.83
2023-04-02T01:37:32.140Z,4.86
2023-04-02T01:40:14.444Z,4.76
2023-04-02T01:43:03.777Z,4.73
2023-04-02T01:45:30.614Z,4.77
2023-04-02T01:47:57.109Z,4.81
2023-04-02T01:50:36.924Z,4.81
2023-04-02T01:53:10.057Z,4.79
2023-04-02T01:55:44.286Z,4.78
2023-04-02T01:58:14.015Z,4.73
2023-04-02T02:00:59.713Z,4.75
2023-04-02T02:03:26.285Z,4.76
2023-04-02T02:05:53.144Z,4.80
2023-04-02T02:08:50.586Z,4.79
2023-04-02T02:11:21.427Z,4.78
2023-04-02T02:14:14.708Z,4.78
2023-04-02T02:16:42.098Z,4.78
2023-04-02T02:19:38.623Z,4.78
2023-04-02T02:22:17.948Z,4.77
2023-04-02T02:24:44.892Z,4.78
2023-04-02T02:27:21.463Z,4.78
2023-04-02T02:29:56.641Z,4.78
2023-04-02T02:32:27.753Z,4.76
2023-04-02T02:35:00.216Z,4.74
2023-04-02T02:37:37.375Z,4.72
2023-04-02T02:40:12.828Z,4.72
2023-04-02T02:42:44.166Z,4.72
2023-04-02T02:45:16.256Z,4.70
2023-04-02T02:47:45.392Z,4.70
2023-04-02T02:50:25.620Z,4.69
2023-04-02T02:52:55.747Z,4.68
2023-04-02T02:55:36.920Z,4.67
2023-04-02T02:58:31.887Z,4.65
2023-04-02T03:01:18.919Z,4.64
2023-04-02T03:03:48.883Z,4.63
2023-04-02T03:06:17.331Z,4.62
2023-04-02T03:09:02.437Z,4.60
2023-04-02T03:11:47.003Z,4.60
2023-04-02T03:14:31.425Z,4.56
2023-04-02T03:17:04.840Z,4.56
2023-04-02T03:19:58.187Z,4.54
2023-04-02T03:22:45.173Z,4.53
2023-04-02T03:25:25.256Z,4.51
2023-04-02T03:28:11.341Z,4.50
2023-04-02T03:30:54.130Z,4.49
2023-04-02T03:33:27.079Z,4.49
2023-04-02T03:35:57.352Z,4.49
2023-04-02T03:38:34.921Z,4.47
2023-04-02T03:41:06.557Z,4.50
2023-04-02T03:43:42.901Z,4.51
2023-04-02T03:46:25.916Z,4.53
2023-04-02T03:49:09.552Z,4.55
2023-04-02T03:51:46.030Z,4.55
2023-04-02T03:54:15.077Z,4.54
2023-04-02T03:56:41.839Z,4.53
2023-04-02T03:59:21.628Z,4.53
2023-04-02T04:01:58.805Z,4.51
2023-04-02T04:04:28.995Z,4.49
2023-04-02T04:06:57.317Z,4.48
2023-04-02T04:09:29.550Z,4.47
2023-04-02T04:12:19.016Z,4.45
2023-04-02T04:14:55.346Z,4.44
2023-04-02T04:17:41.851Z,4.43
2023-04-02T04:20:21.891Z,4.45
2023-04-02T04:22:55.563Z,4.42
2023-04-02T04:25:29.986Z,4.44
2023-04-02T04:28:26.566Z,4.44
2023-04-02T04:31:17.704Z,4.42
2023-04-02T04:33:54.950Z,4.41
2023-04-02T04:36:32.140Z,4.39
2023-04-02T04:39:14.521Z,4.39
2023-04-02T04:41:46.247Z,4.39
2023-04-02T04:45:00.937Z,4.40
2023-04-02T04:47:34.070Z,4.42
2023-04-02T04:50:12.543Z,4.46
2023-04-02T04:52:42.377Z,4.49
2023-04-02T04:55:34.922Z,4.55
2023-04-02T04:58:11.790Z,4.61
2023-04-02T05:01:00.408Z,4.66
2023-04-02T05:03:46.520Z,4.70
2023-04-02T05:06:32.515Z,4.74
2023-04-02T05:09:08.428Z,4.79
2023-04-02T05:11:42.551Z,4.83
2023-04-02T05:14:33.781Z,4.87
2023-04-02T05:17:10.400Z,4.90
2023-04-02T05:19:43.387Z,4.94
2023-04-02T05:22:27.045Z,4.98
2023-04-02T05:25:12.586Z,5.05
2023-04-02T05:27:54.245Z,5.08
2023-04-02T05:30:23.638Z,5.12
2023-04-02T05:33:05.044Z,5.16
2023-04-02T05:35:36.772Z,5.19
2023-04-02T05:38:06.466Z,5.22
2023-04-02T05:40:39.368Z,5.24
2023-04-02T05:43:09.893Z,5.28
2023-04-02T05:45:44.069Z,5.31
2023-04-02T05:48:17.427Z,5.35
2023-04-02T05:50:55.424Z,5.37
2023-04-02T05:53:37.348Z,5.42
2023-04-02T05:56:20.315Z,5.43
2023-04-02T05:59:21.580Z,5.44
2023-04-02T06:02:22.193Z,5.48
2023-04-02T06:05:00.233Z,5.50
2023-04-02T06:07:44.956Z,5.55
2023-04-02T06:10:27.035Z,5.60
2023-04-02T06:13:02.267Z,5.64
2023-04-02T06:15:32.761Z,5.66
2023-04-02T06:18:18.803Z,5.68
2023-04-02T06:20:47.387Z,5.70
2023-04-02T06:23:31.182Z,5.71
2023-04-02T06:26:24.208Z,5.67
2023-04-02T06:29:06.854Z,5.64
2023-04-02T06:31:33.730Z,5.61
2023-04-02T06:34:05.034Z,5.58
2023-04-02T06:36:33.702Z,5.54
2023-04-02T06:39:18.661Z,5.55
2023-04-02T06:41:45.531Z,5.57
2023-04-02T06:44:35.554Z,5.56
2023-04-02T06:47:34.985Z,5.59
2023-04-02T06:50:12.608Z,5.63
2023-04-02T06:52:54.823Z,5.64
2023-04-02T06:55:30.323Z,5.66
2023-04-02T06:57:57.138Z,5.68
2023-04-02T07:00:26.231Z,5.73
2023-04-02T07:02:55.295Z,5.75
2023-04-02T07:05:21.976Z,5.74
2023-04-02T07:07:48.568Z,5.71
2023-04-02T07:10:15.764Z,5.71
2023-04-02T07:12:42.515Z,5.70
2023-04-02T07:15:15.265Z,5.71
2023-04-02T07:17:42.345Z,5.73
2023-04-02T07:20:38.664Z,5.75
2023-04-02T07:23:09.087Z,5.78
2023-04-02T07:25:36.302Z,5.76
2023-04-02T07:28:02.968Z,5.69
2023-04-02T07:30:29.319Z,5.68
2023-04-02T07:32:55.749Z,5.69
2023-04-02T07:35:22.700Z,5.72
2023-04-02T07:37:49.085Z,5.74
2023-04-02T07:40:21.882Z,5.76
2023-04-02T07:42:48.741Z,5.79
2023-04-02T07:45:15.608Z,5.82
2023-04-02T07:47:42.959Z,5.88
2023-04-02T07:50:10.648Z,5.89
2023-04-02T07:52:44.532Z,5.90
2023-04-02T07:55:13.134Z,5.93
2023-04-02T07:57:56.745Z,5.94
2023-04-02T08:00:24.349Z,5.93
2023-04-02T08:02:51.978Z,5.98
2023-04-02T08:05:18.820Z,6.00
2023-04-02T08:07:56.007Z,6.01
2023-04-02T08:10:22.981Z,6.03
2023-04-02T08:12:49.730Z,6.04
2023-04-02T08:15:16.897Z,6.05
2023-04-02T08:17:43.647Z,6.05
2023-04-02T08:20:22.286Z,6.09
2023-04-02T08:22:49.777Z,6.14
2023-04-02T08:25:16.656Z,6.16
2023-04-02T08:27:47.167Z,6.22
2023-04-02T08:30:14.470Z,6.33
2023-04-02T08:32:43.634Z,6.47
2023-04-02T08:35:13.066Z,6.59
2023-04-02T08:37:39.519Z,6.61
2023-04-02T08:40:09.982Z,6.54
2023-04-02T08:43:05.385Z,6.53
2023-04-02T08:45:58.200Z,6.55
2023-04-02T08:48:24.648Z,6.58
2023-04-02T08:50:51.576Z,6.56
2023-04-02T08:53:22.764Z,6.51
2023-04-02T08:56:05.230Z,6.49
2023-04-02T08:58:41.629Z,6.54
2023-04-02T09:01:19.766Z,6.57
2023-04-02T09:03:49.587Z,6.62
2023-04-02T09:06:19.846Z,6.68
2023-04-02T09:08:48.746Z,6.72
2023-04-02T09:11:21.796Z,6.77
2023-04-02T09:13:57.193Z,6.81
2023-04-02T09:16:48.303Z,6.83
2023-04-02T09:19:16.663Z,6.85
2023-04-02T09:22:02.168Z,6.85
2023-04-02T09:24:28.530Z,6.91
2023-04-02T09:26:54.904Z,7.04
2023-04-02T09:29:40.059Z,7.24
2023-04-02T09:32:18.260Z,7.39
2023-04-02T09:34:44.740Z,7.42
2023-04-02T09:37:17.312Z,7.47
2023-04-02T09:39:43.869Z,7.59
2023-04-02T09:42:29.350Z,7.72
2023-04-02T09:45:19.263Z,7.90
2023-04-02T09:47:46.063Z,7.98
2023-04-02T09:50:27.142Z,7.99
2023-04-02T09:52:54.073Z,7.92
2023-04-02T09:55:27.158Z,7.96
2023-04-02T09:58:15.064Z,7.96
2023-04-02T10:00:51.112Z,7.96
2023-04-02T10:03:27.776Z,8.00
2023-04-02T10:06:12.590Z,7.96
2023-04-02T10:08:42.290Z,7.89
2023-04-02T10:11:28.797Z,7.95
2023-04-02T10:14:03.268Z,8.18
2023-04-02T10:16:34.617Z,8.38
2023-04-02T10:19:13.237Z,8.61
2023-04-02T10:21:42.169Z,8.91
2023-04-02T10:24:18.747Z,9.35
2023-04-02T10:26:51.260Z,9.82
2023-04-02T10:29:43.949Z,10.51
2023-04-02T10:32:16.395Z,11.33
2023-04-02T10:34:58.367Z,12.82
2023-04-02T10:37:49.462Z,14.54
2023-04-02T10:40:36.645Z,17.21
2023-04-02T10:43:12.218Z,18.12
2023-04-02T10:45:51.068Z,18.53
2023-04-02T10:48:33.821Z,20.61
2023-04-02T10:51:06.741Z,21.55
2023-04-02T10:53:53.043Z,21.29
2023-04-02T10:56:21.477Z,21.28
2023-04-02T10:58:57.328Z,20.84
2023-04-02T11:01:29.645Z,22.47
2023-04-02T11:04:25.140Z,24.13
2023-04-02T11:07:13.711Z,25.48
2023-04-02T11:09:44.067Z,24.80
2023-04-02T11:12:56.754Z,23.93
2023-04-02T11:15:23.622Z,24.54
2023-04-02T11:17:50.396Z,24.44
2023-04-02T11:20:43.151Z,24.46
2023-04-02T11:23:14.408Z,24.49
2023-04-02T11:25:42.385Z,23.69
2023-04-02T11:28:32.769Z,20.88
2023-04-02T11:30:59.730Z,22.15
2023-04-02T11:33:38.631Z,23.41
2023-04-02T11:36:44.056Z,24.43
2023-04-02T11:39:17.539Z,24.89
2023-04-02T11:42:05.439Z,25.37
2023-04-02T11:44:31.864Z,27.10
2023-04-02T11:47:22.340Z,28.94
2023-04-02T11:49:54.725Z,29.80
2023-04-02T11:52:30.889Z,29.53
2023-04-02T11:55:00.845Z,30.00
2023-04-02T11:57:50.568Z,30.87
2023-04-02T12:00:56.118Z,31.09
2023-04-02T12:03:25.964Z,30.11
2023-04-02T12:06:06.093Z,29.38
2023-04-02T12:08:58.036Z,28.50
2023-04-02T12:11:37.741Z,28.67
2023-04-02T12:14:32.668Z,29.89
2023-04-02T12:16:59.617Z,29.97
2023-04-02T12:19:27.364Z,30.26
2023-04-02T12:21:53.788Z,30.55
2023-04-02T12:24:23.563Z,31.43
2023-04-02T12:27:08.422Z,31.48
2023-04-02T12:29:36.153Z,31.83
2023-04-02T12:32:03.947Z,32.25
2023-04-02T12:34:30.899Z,32.52
2023-04-02T12:37:02.921Z,31.77
2023-04-02T12:39:31.226Z,30.29
2023-04-02T12:41:58.212Z,29.47
2023-04-02T12:44:31.695Z,28.70
2023-04-02T12:47:01.422Z,27.82
2023-04-02T12:49:39.427Z,27.73
2023-04-02T12:52:08.997Z,28.62
2023-04-02T12:54:46.607Z,30.07
2023-04-02T12:57:39.159Z,31.04
2023-04-02T13:00:21.010Z,30.97
2023-04-02T13:03:21.628Z,29.72
2023-04-02T13:05:55.050Z,30.36
2023-04-02T13:08:42.496Z,30.26
2023-04-02T13:11:08.985Z,30.87
2023-04-02T13:13:43.808Z,31.70
2023-04-02T13:16:10.329Z,30.76
2023-04-02T13:18:38.446Z,30.17
2023-04-02T13:21:17.071Z,29.19
2023-04-02T13:23:44.500Z,28.38
2023-04-02T13:26:18.400Z,28.77
2023-04-02T13:29:02.149Z,30.12
2023-04-02T13:31:30.940Z,29.85
2023-04-02T13:33:58.215Z,26.66
2023-04-02T13:36:24.821Z,26.95
2023-04-02T13:38:51.198Z,28.81
2023-04-02T13:41:20.785Z,30.20
2023-04-02T13:43:47.172Z,29.05
2023-04-02T13:46:20.978Z,27.43
2023-04-02T13:48:49.406Z,25.80
2023-04-02T13:51:17.818Z,25.44
2023-04-02T13:53:46.679Z,26.75
2023-04-02T13:56:13.171Z,27.84
2023-04-02T13:58:39.606Z,28.28
2023-04-02T14:01:06.024Z,28.59
2023-04-02T14:03:32.468Z,28.43
2023-04-02T14:06:11.946Z,27.96
2023-04-02T14:09:04.130Z,26.31
2023-04-02T14:12:17.889Z,24.24
2023-04-02T14:15:03.847Z,21.14
2023-04-02T14:17:43.488Z,19.45
2023-04-02T14:20:35.058Z,18.12
2023-04-02T14:23:35.751Z,17.06
2023-04-02T14:26:16.055Z,16.24
2023-04-02T14:28:59.786Z,15.56
2023-04-02T14:31:50.271Z,15.15
2023-04-02T14:34:35.331Z,14.38
2023-04-02T14:37:27.425Z,13.59
2023-04-02T14:40:03.686Z,13.27
2023-04-02T14:42:50.791Z,13.14
2023-04-02T14:45:43.411Z,13.10
2023-04-02T14:48:40.581Z,12.82
2023-04-02T14:51:36.163Z,12.68
2023-04-02T14:54:27.976Z,12.50
2023-04-02T14:57:00.527Z,12.32
2023-04-02T14:59:33.789Z,12.15
2023-04-02T15:02:08.852Z,12.09
2023-04-02T15:04:44.648Z,11.88
2023-04-02T15:07:20.155Z,11.54
2023-04-02T15:09:57.803Z,11.45
2023-04-02T15:12:28.630Z,11.36
2023-04-02T15:15:02.228Z,11.25
2023-04-02T15:17:28.797Z,11.11
2023-04-02T15:20:07.199Z,11.16
2023-04-02T15:23:06.969Z,11.35
2023-04-02T15:25:50.836Z,11.33
2023-04-02T15:28:17.505Z,11.18
2023-04-02T15:30:45.608Z,11.13
2023-04-02T15:33:27.416Z,11.03
2023-04-02T15:36:09.096Z,10.91
2023-04-02T15:38:43.416Z,10.78
2023-04-02T15:41:37.164Z,10.84
2023-04-02T15:44:12.254Z,10.87
2023-04-02T15:47:01.284Z,10.74
2023-04-02T15:49:43.173Z,10.53
2023-04-02T15:52:33.132Z,10.40
2023-04-02T15:55:22.378Z,10.21
2023-04-02T15:58:35.491Z,9.90
2023-04-02T16:01:13.340Z,9.81
2023-04-02T16:04:12.988Z,9.80
2023-04-02T16:06:53.125Z,9.83
2023-04-02T16:09:47.944Z,9.83
2023-04-02T16:12:17.575Z,9.76
2023-04-02T16:14:46.984Z,9.71
2023-04-02T16:17:25.733Z,9.69
2023-04-02T16:20:27.822Z,9.66
2023-04-02T16:23:02.831Z,9.61
2023-04-02T16:25:39.373Z,9.53
2023-04-02T16:28:07.699Z,9.44
2023-04-02T16:30:50.007Z,9.41
2023-04-02T16:33:35.193Z,9.41
2023-04-02T16:36:09.719Z,9.43
2023-04-02T16:38:54.978Z,9.47
2023-04-02T16:41:47.551Z,9.48
2023-04-02T16:44:29.257Z,9.44
2023-04-02T16:47:14.536Z,9.40
2023-04-02T16:49:52.433Z,9.33
2023-04-02T16:52:26.735Z,9.28
2023-04-02T16:55:04.959Z,9.21
2023-04-02T16:57:40.383Z,9.13
2023-04-02T17:00:42.110Z,9.14
2023-04-02T17:03:37.744Z,9.13
2023-04-02T17:06:31.307Z,9.14
2023-04-02T17:09:08.164Z,9.09
2023-04-02T17:11:41.431Z,9.09
2023-04-02T17:14:24.224Z,9.11
2023-04-02T17:16:55.982Z,9.08
2023-04-02T17:19:25.822Z,9.02
2023-04-02T17:21:58.831Z,8.98
2023-04-02T17:24:33.275Z,8.99
2023-04-02T17:27:06.888Z,8.96
2023-04-02T17:29:37.561Z,8.98
2023-04-02T17:32:11.950Z,8.98
2023-04-02T17:34:38.352Z,8.95
2023-04-02T17:37:15.350Z,8.90
2023-04-02T17:39:57.800Z,8.84
2023-04-02T17:43:04.258Z,8.71
2023-04-02T17:45:51.925Z,8.67
2023-04-02T17:48:39.606Z,8.59
2023-04-02T17:51:35.231Z,8.55
2023-04-02T17:54:17.217Z,8.50
2023-04-02T17:57:04.691Z,8.43
2023-04-02T17:59:45.901Z,8.39
2023-04-02T18:02:31.262Z,8.31
2023-04-02T18:05:24.894Z,8.27
2023-04-02T18:08:14.404Z,8.24
2023-04-02T18:11:08.169Z,8.24
2023-04-02T18:13:38.014Z,8.20
2023-04-02T18:16:36.306Z,8.16
2023-04-02T18:19:36.782Z,8.15
2023-04-02T18:22:18.165Z,8.10
2023-04-02T18:25:13.192Z,8.08
2023-04-02T18:27:55.926Z,8.08
2023-04-02T18:30:50.934Z,8.06
2023-04-02T18:33:33.825Z,8.05
2023-04-02T18:36:12.683Z,8.03
2023-04-02T18:39:02.142Z,7.99
2023-04-02T18:41:58.232Z,7.95
2023-04-02T18:44:38.591Z,7.94
2023-04-02T18:47:25.766Z,7.91
2023-04-02T18:50:18.783Z,7.88
2023-04-02T18:52:45.812Z,7.85
2023-04-02T18:55:22.197Z,7.83
2023-04-02T18:57:52.790Z,7.81
2023-04-02T19:00:29.532Z,7.78
2023-04-02T19:02:58.961Z,7.74
2023-04-02T19:05:35.895Z,7.73
2023-04-02T19:08:12.619Z,7.69
2023-04-02T19:10:41.753Z,7.67
2023-04-02T19:13:15.362Z,7.63
2023-04-02T19:15:58.380Z,7.62
2023-04-02T19:18:43.713Z,7.58
2023-04-02T19:21:34.038Z,7.54
2023-04-02T19:24:22.204Z,7.53
2023-04-02T19:26:56.451Z,7.52
2023-04-02T19:29:41.757Z,7.51
2023-04-02T19:32:19.172Z,7.48
2023-04-02T19:34:57.934Z,7.44
2023-04-02T19:38:02.563Z,7.42
2023-04-02T19:40:56.669Z,7.41
2023-04-02T19:43:23.265Z,7.39
2023-04-02T19:45:50.547Z,7.38
2023-04-02T19:48:21.639Z,7.35
2023-04-02T19:50:49.121Z,7.32
2023-04-02T19:53:16.108Z,7.29
2023-04-02T19:55:43.798Z,7.25
2023-04-02T19:58:25.778Z,7.24
2023-04-02T20:00:52.252Z,7.20
2023-04-02T20:03:18.705Z,7.20
2023-04-02T20:05:45.390Z,7.18
2023-04-02T20:08:12.083Z,7.17
2023-04-02T20:10:38.795Z,7.15
2023-04-02T20:13:05.446Z,7.13
2023-04-02T20:15:32.293Z,7.10
2023-04-02T20:17:58.690Z,7.07
2023-04-02T20:20:25.211Z,7.04
2023-04-02T20:22:51.579Z,7.04
2023-04-02T20:25:18.038Z,7.02
2023-04-02T20:27:44.414Z,7.00
2023-04-02T20:30:11.373Z,6.99
2023-04-02T20:32:38.864Z,6.97
2023-04-02T20:35:05.921Z,6.97
2023-04-02T20:37:32.661Z,6.95
2023-04-02T20:39:59.006Z,6.93
2023-04-02T20:42:25.564Z,6.92
2023-04-02T20:44:52.002Z,6.91
2023-04-02T20:47:18.402Z,6.90
2023-04-02T20:49:44.889Z,6.88
2023-04-02T20:52:11.509Z,6.87
2023-04-02T20:54:37.960Z,6.85
2023-04-02T20:57:04.708Z,6.84
2023-04-02T20:59:31.102Z,6.81
2023-04-02T21:01:57.487Z,6.82
2023-04-02T21:04:23.967Z,6.79
2023-04-02T21:06:56.653Z,6.77
2023-04-02T21:09:23.422Z,6.74
2023-04-02T21:11:49.952Z,6.71
2023-04-02T21:14:17.046Z,6.70
2023-04-02T21:16:43.539Z,6.67
2023-04-02T21:19:10.449Z,6.65
2023-04-02T21:21:38.777Z,6.63
2023-04-02T21:24:07.989Z,6.59
2023-04-02T21:26:37.330Z,6.54
2023-04-02T21:29:07.680Z,6.47
2023-04-02T21:31:37.177Z,6.41
2023-04-02T21:34:04.837Z,6.35
2023-04-02T21:36:34.378Z,6.30
2023-04-02T21:39:06.657Z,6.23
2023-04-02T21:41:35.351Z,6.15
2023-04-02T21:44:03.630Z,6.03
2023-04-02T21:46:31.925Z,5.93
2023-04-02T21:48:59.628Z,5.84
2023-04-02T21:51:28.736Z,5.76
2023-04-02T21:53:55.256Z,5.68
2023-04-02T21:56:27.329Z,5.62
2023-04-02T21:58:54.741Z,5.59
2023-04-02T22:01:27.138Z,5.57
2023-04-02T22:03:55.281Z,5.52
2023-04-02T22:06:23.656Z,5.47
2023-04-02T22:08:56.765Z,5.47
2023-04-02T22:11:33.087Z,5.44
2023-04-02T22:14:00.045Z,5.43
2023-04-02T22:16:30.200Z,5.43
2023-04-02T22:19:00.709Z,5.46
2023-04-02T22:21:28.693Z,5.52
2023-04-02T22:23:55.355Z,5.57
2023-04-02T22:26:23.194Z,5.59
2023-04-02T22:28:50.530Z,5.59
2023-04-02T22:31:20.091Z,5.57
2023-04-02T22:33:47.361Z,5.57
2023-04-02T22:36:14.677Z,5.54
2023-04-02T22:38:41.273Z,5.54
2023-04-02T22:41:14.310Z,5.52
2023-04-02T22:43:43.934Z,5.51
2023-04-02T22:46:12.067Z,5.49
2023-04-02T22:48:39.861Z,5.44
2023-04-02T22:51:08.018Z,5.39
2023-04-02T22:53:36.393Z,5.32
2023-04-02T22:56:06.844Z,5.25
2023-04-02T22:58:34.166Z,5.21
2023-04-02T23:01:30.035Z,5.17
2023-04-02T23:03:56.640Z,5.14
2023-04-02T23:06:24.610Z,5.11
2023-04-02T23:08:52.022Z,5.10
2023-04-02T23:11:24.553Z,5.09
2023-04-02T23:13:52.873Z,5.07
2023-04-02T23:16:19.938Z,5.06
2023-04-02T23:18:48.040Z,5.04
2023-04-02T23:21:15.387Z,5.02
2023-04-02T23:23:42.430Z,4.99
2023-04-02T23:26:17.517Z,4.98
2023-04-02T23:28:45.099Z,5.00
2023-04-02T23:31:14.227Z,5.00
2023-04-02T23:33:40.808Z,4.98
2023-04-02T23:36:09.909Z,4.97
2023-04-02T23:38:36.318Z,4.96
2023-04-02T23:41:02.898Z,4.93
2023-04-02T23:43:29.283Z,4.91
2023-04-02T23:45:55.686Z,4.89
2023-04-02T23:48:22.088Z,4.87
2023-04-02T23:50:48.512Z,4.84
2023-04-02T23:53:16.326Z,4.81
2023-04-02T23:55:42.758Z,4.78
2023-04-02T23:58:09.130Z,4.77
